Main page
METAR-TAF:

METAR-TAF

Airports :

Imeson Field

Jacksonville, Illinois, United States

latitude: 39-46-27N, longitude: 090-14-19W, elevation: 623 ft

Current weather observation

The report was made 11 minutes ago, at 20:55 UTC
Wind 7 mph from the Southeast
Temperature 55°F
Humidity 51%
Pressure 30.04 in. Hg
Visibility: 10 miles
Clear sky

METAR: KIJX 012055Z AUTO 13006KT 10SM CLR 13/03 A3004 RMK AO2 T01300034

Time: 16:06 (21:06 UTC)


TAF: missing

Weather observations and forecasts of more than 4000 airports (METAR and TAF reports).

The available stations are represented by yellow and red dots on the map.

Hover mouse over dot to see the name of the station.

Then click to see weather observations and forecasts.

To change the map : click on the green buttons with a black cross to zoom in, on the green button with a dash to zoom out, or on the green arrows for adjacent maps.


METAR-TAF: